Time;durP1;ratioP1;P1;durP2;ratioP2;P2;SDS_P1;SDS_P2;PMS_P1;PMS_P2;Temp;Humidity;BMP_temperature;BMP_pressure;BME280_temperature;BME280_humidity;BME280_pressure;Samples;Min_cycle;Max_cycle;Signal;HPM_P1;HPM_P2
2023/04/06 00:00:48;;;;;;;2.85;1.00;;;19.40;47.50;;;;;;4934952;29;20051;-61
2023/04/06 00:03:13;;;;;;;2.33;0.80;;;19.40;47.40;;;;;;4917971;29;20050;-62
2023/04/06 00:05:39;;;;;;;2.25;0.90;;;19.30;47.40;;;;;;4935327;29;20051;-62
2023/04/06 00:08:05;;;;;;;3.42;1.00;;;19.30;47.40;;;;;;4934745;29;20044;-62
2023/04/06 00:10:31;;;;;;;3.35;1.00;;;19.30;47.30;;;;;;4935674;29;20059;-62
2023/04/06 00:12:58;;;;;;;2.67;0.90;;;19.30;48.00;;;;;;4934242;29;20046;-62
2023/04/06 00:15:23;;;;;;;2.10;0.70;;;19.30;47.40;;;;;;4918265;29;20086;-62
2023/04/06 00:17:49;;;;;;;2.97;0.93;;;19.30;47.40;;;;;;4918394;29;20080;-61
2023/04/06 00:20:15;;;;;;;3.60;1.00;;;19.30;47.30;;;;;;4934430;29;20131;-62
2023/04/06 00:22:41;;;;;;;2.15;0.98;;;19.30;47.30;;;;;;4935332;29;20039;-62
2023/04/06 00:25:07;;;;;;;1.83;0.90;;;19.30;47.40;;;;;;4935147;29;20436;-61
2023/04/06 00:27:32;;;;;;;1.85;0.88;;;19.30;47.30;;;;;;4934552;29;20622;-61
2023/04/06 00:29:58;;;;;;;2.55;1.00;;;19.20;47.30;;;;;;4917920;29;20055;-61
2023/04/06 00:32:23;;;;;;;1.80;1.00;;;19.20;47.30;;;;;;4935192;29;20054;-61
2023/04/06 00:34:49;;;;;;;1.67;1.00;;;19.20;47.30;;;;;;4934375;29;20130;-62
2023/04/06 00:37:15;;;;;;;3.05;0.95;;;19.20;47.30;;;;;;4935092;29;20058;-61
2023/04/06 00:39:40;;;;;;;2.75;0.80;;;19.20;47.30;;;;;;4935442;29;20044;-61
2023/04/06 00:42:11;;;;;;;2.50;1.00;;;19.20;47.30;;;;;;4933841;29;20047;-62
2023/04/06 00:44:36;;;;;;;2.55;0.90;;;19.20;47.30;;;;;;4918831;29;20107;-61
2023/04/06 00:47:02;;;;;;;1.98;0.80;;;19.20;47.30;;;;;;4917965;29;20039;-61
2023/04/06 00:49:27;;;;;;;1.65;0.80;;;19.10;47.20;;;;;;4934176;29;20043;-61
2023/04/06 00:51:53;;;;;;;1.58;0.90;;;19.10;47.20;;;;;;4935186;29;20048;-61
2023/04/06 00:54:19;;;;;;;2.63;0.80;;;19.10;47.30;;;;;;4918041;29;20471;-61
2023/04/06 00:56:44;;;;;;;3.17;1.00;;;19.10;47.30;;;;;;4934982;29;20040;-61
2023/04/06 00:59:11;;;;;;;2.95;1.10;;;19.10;47.20;;;;;;4921257;29;20048;-62
2023/04/06 01:01:36;;;;;;;1.75;0.80;;;19.10;47.30;;;;;;4921417;29;20091;-61
2023/04/06 01:04:02;;;;;;;2.60;0.88;;;19.10;47.20;;;;;;4937766;29;20052;-61
2023/04/06 01:06:28;;;;;;;2.38;0.90;;;19.10;47.20;;;;;;4938485;29;20054;-61
2023/04/06 01:08:54;;;;;;;2.35;1.02;;;19.10;47.20;;;;;;4937866;29;20045;-61
2023/04/06 01:11:19;;;;;;;2.50;0.80;;;19.10;47.10;;;;;;4937592;29;20488;-61
2023/04/06 01:13:45;;;;;;;2.10;0.90;;;19.10;47.10;;;;;;4938322;29;20407;-61
2023/04/06 01:16:11;;;;;;;2.47;0.93;;;19.10;47.10;;;;;;4937263;29;20175;-61
2023/04/06 01:18:37;;;;;;;2.42;1.00;;;19.10;47.00;;;;;;4938109;29;20044;-61
2023/04/06 01:21:02;;;;;;;2.20;0.95;;;19.10;47.00;;;;;;4937516;29;20452;-61
2023/04/06 01:23:28;;;;;;;1.83;0.80;;;19.10;46.90;;;;;;4937273;29;20178;-61
2023/04/06 01:25:53;;;;;;;1.55;0.80;;;19.10;46.90;;;;;;4937897;29;20056;-62
2023/04/06 01:28:19;;;;;;;1.83;0.90;;;19.10;46.90;;;;;;4937930;29;20051;-62
2023/04/06 01:30:45;;;;;;;1.85;0.70;;;19.10;46.90;;;;;;4937281;29;20047;-62
2023/04/06 01:33:10;;;;;;;1.70;0.80;;;19.10;46.90;;;;;;4944517;29;20055;-62
2023/04/06 01:35:36;;;;;;;2.00;0.80;;;19.10;46.90;;;;;;4939936;29;20051;-62
2023/04/06 01:38:02;;;;;;;2.55;0.80;;;19.10;46.80;;;;;;4955828;29;20431;-62
2023/04/06 01:40:27;;;;;;;2.00;0.93;;;19.10;46.80;;;;;;4956814;29;20043;-61
2023/04/06 01:42:53;;;;;;;2.67;1.08;;;19.10;46.80;;;;;;4957114;29;20082;-62
2023/04/06 01:45:18;;;;;;;1.60;0.65;;;19.10;46.70;;;;;;4938665;29;20055;-61
2023/04/06 01:47:44;;;;;;;2.20;0.80;;;19.10;46.70;;;;;;4939611;29;20061;-62
2023/04/06 01:50:10;;;;;;;2.60;1.05;;;19.10;46.70;;;;;;4956046;29;20054;-62
2023/04/06 01:52:35;;;;;;;2.40;1.10;;;19.10;46.80;;;;;;4955726;29;20121;-61
2023/04/06 01:55:01;;;;;;;1.17;0.60;;;19.10;46.80;;;;;;4939322;29;20043;-62
2023/04/06 01:57:26;;;;;;;1.95;1.10;;;19.10;46.80;;;;;;4939259;29;20446;-62
2023/04/06 01:59:52;;;;;;;2.25;1.00;;;19.10;46.90;;;;;;4938947;29;20047;-61
2023/04/06 02:02:17;;;;;;;1.65;0.80;;;19.10;46.90;;;;;;4955946;29;20360;-61
2023/04/06 02:04:43;;;;;;;3.97;1.13;;;19.10;46.90;;;;;;4955805;29;20122;-61
2023/04/06 02:07:08;;;;;;;1.73;0.90;;;19.10;46.90;;;;;;4955223;29;20049;-61
2023/04/06 02:09:34;;;;;;;1.85;0.75;;;19.10;46.90;;;;;;4955519;28;20082;-62
2023/04/06 02:12:01;;;;;;;3.75;1.05;;;19.10;46.80;;;;;;4955698;29;20047;-62
2023/04/06 02:14:26;;;;;;;1.85;0.63;;;19.10;46.80;;;;;;4955902;29;20055;-61
2023/04/06 02:16:52;;;;;;;2.28;0.90;;;19.10;46.70;;;;;;4938829;29;20050;-61
2023/04/06 02:19:17;;;;;;;1.63;0.80;;;19.10;46.60;;;;;;4955909;29;20081;-61
2023/04/06 02:21:43;;;;;;;2.33;1.02;;;19.10;46.60;;;;;;4955651;29;20047;-61
2023/04/06 02:24:08;;;;;;;2.80;0.82;;;19.10;46.60;;;;;;4955856;29;20055;-61
2023/04/06 02:26:34;;;;;;;3.40;0.80;;;19.10;46.70;;;;;;4955509;29;20054;-62
2023/04/06 02:29:01;;;;;;;1.65;0.90;;;19.10;46.60;;;;;;4954998;29;20054;-61
2023/04/06 02:31:27;;;;;;;1.35;0.73;;;19.10;46.70;;;;;;4938801;29;20076;-61
2023/04/06 02:33:52;;;;;;;1.50;0.75;;;19.10;46.70;;;;;;4955291;29;20043;-61
2023/04/06 02:36:18;;;;;;;2.67;0.90;;;19.10;46.70;;;;;;4955541;29;20483;-61
2023/04/06 02:38:44;;;;;;;3.03;0.70;;;19.10;46.70;;;;;;4955640;29;20425;-61
2023/04/06 02:41:09;;;;;;;2.40;0.90;;;19.10;46.80;;;;;;4954662;29;20058;-61
2023/04/06 02:43:35;;;;;;;2.83;0.90;;;19.10;46.80;;;;;;4955629;29;20043;-61
2023/04/06 02:46:00;;;;;;;1.60;0.75;;;19.10;46.70;;;;;;4955577;29;20438;-61
2023/04/06 02:48:26;;;;;;;1.13;0.60;;;19.10;46.70;;;;;;4954651;29;20087;-61
2023/04/06 02:50:51;;;;;;;0.98;0.70;;;19.10;46.80;;;;;;4955248;29;20047;-61
2023/04/06 02:53:17;;;;;;;1.02;0.63;;;19.10;46.80;;;;;;4955009;29;20074;-61
2023/04/06 02:55:42;;;;;;;2.38;1.05;;;19.10;47.50;;;;;;4954930;29;20557;-61
2023/04/06 02:58:08;;;;;;;1.55;0.80;;;19.20;46.90;;;;;;4955286;29;20486;-61
2023/04/06 03:00:34;;;;;;;1.48;0.70;;;19.10;46.80;;;;;;4955278;29;20122;-61
2023/04/06 03:02:59;;;;;;;1.30;0.70;;;19.20;46.80;;;;;;4937194;29;20079;-62
2023/04/06 03:05:25;;;;;;;1.42;0.80;;;19.20;46.80;;;;;;4955295;29;20051;-61
2023/04/06 03:07:50;;;;;;;1.52;0.90;;;19.20;46.80;;;;;;4955060;29;20038;-61
2023/04/06 03:10:16;;;;;;;1.83;0.77;;;19.20;46.80;;;;;;4954480;29;20050;-61
2023/04/06 03:12:42;;;;;;;1.90;0.90;;;19.20;46.80;;;;;;4937822;29;20098;-61
2023/04/06 03:15:08;;;;;;;1.08;0.73;;;19.30;46.80;;;;;;4954603;29;20495;-61
2023/04/06 03:17:33;;;;;;;2.35;0.80;;;19.20;46.80;;;;;;4954568;29;20054;-61
2023/04/06 03:19:59;;;;;;;1.73;0.93;;;19.30;46.80;;;;;;4954829;28;20039;-61
2023/04/06 03:22:25;;;;;;;2.10;0.80;;;19.30;46.80;;;;;;4954898;29;20047;-61
2023/04/06 03:24:50;;;;;;;1.80;0.80;;;19.30;46.90;;;;;;4954590;29;20090;-61
2023/04/06 03:27:16;;;;;;;1.48;0.57;;;19.30;46.80;;;;;;4954980;29;20494;-61
2023/04/06 03:29:41;;;;;;;2.35;0.77;;;19.30;46.80;;;;;;4954849;29;20451;-61
2023/04/06 03:32:07;;;;;;;1.80;0.88;;;19.30;46.80;;;;;;4954252;29;20410;-61
2023/04/06 03:34:32;;;;;;;1.55;0.70;;;19.40;46.90;;;;;;4954882;29;20043;-61
2023/04/06 03:36:58;;;;;;;1.65;0.80;;;19.40;46.80;;;;;;4936655;29;20050;-61
2023/04/06 03:39:23;;;;;;;1.55;0.80;;;19.40;46.80;;;;;;4954743;29;20118;-61
2023/04/06 03:41:49;;;;;;;2.20;0.70;;;19.40;46.90;;;;;;4955081;29;20098;-61
2023/04/06 03:44:15;;;;;;;1.15;0.60;;;19.40;46.90;;;;;;4954019;29;20086;-61
2023/04/06 03:46:40;;;;;;;2.03;0.90;;;19.40;46.90;;;;;;4954638;29;20062;-61
2023/04/06 03:49:06;;;;;;;2.03;0.80;;;19.40;46.80;;;;;;4954530;29;20050;-61
2023/04/06 03:51:31;;;;;;;1.00;0.68;;;19.50;46.90;;;;;;4953775;29;20059;-61
2023/04/06 03:53:57;;;;;;;1.42;0.80;;;19.40;46.80;;;;;;4954300;29;20036;-61
2023/04/06 03:56:22;;;;;;;1.55;0.77;;;19.40;46.80;;;;;;4954718;29;20043;-61
2023/04/06 03:58:51;;;;;;;1.83;0.60;;;19.50;46.90;;;;;;4936659;29;20138;-61
2023/04/06 04:01:17;;;;;;;;;;;19.50;46.90;;;;;;4945008;29;20533;-61
2023/04/06 04:03:43;;;;;;;1.75;0.70;;;19.50;46.90;;;;;;4951888;29;20386;-61
2023/04/06 04:06:09;;;;;;;1.70;0.70;;;19.50;46.90;;;;;;4953351;29;20046;-61
2023/04/06 04:08:35;;;;;;;1.23;0.70;;;19.50;46.90;;;;;;4954158;29;20273;-61
2023/04/06 04:11:01;;;;;;;1.35;0.80;;;19.50;46.90;;;;;;4954212;29;20059;-61
2023/04/06 04:13:26;;;;;;;1.42;0.88;;;19.60;46.90;;;;;;4954249;29;20047;-61
2023/04/06 04:15:52;;;;;;;1.65;0.77;;;19.50;46.80;;;;;;4937338;29;20044;-61
2023/04/06 04:18:18;;;;;;;1.58;0.77;;;19.60;46.90;;;;;;4936924;29;20047;-61
2023/04/06 04:20:44;;;;;;;2.05;0.90;;;19.60;46.90;;;;;;4936854;29;20044;-61
2023/04/06 04:23:09;;;;;;;1.27;0.80;;;19.60;46.90;;;;;;4953842;29;20058;-61
2023/04/06 04:25:35;;;;;;;2.00;0.77;;;19.60;46.90;;;;;;4954447;29;20598;-61
2023/04/06 04:28:00;;;;;;;1.45;0.70;;;19.60;46.90;;;;;;4953914;29;20398;-61
2023/04/06 04:30:26;;;;;;;1.52;0.60;;;19.60;46.90;;;;;;4954422;29;20063;-61
2023/04/06 04:32:52;;;;;;;1.75;0.70;;;19.60;46.90;;;;;;4956678;28;20039;-61
2023/04/06 04:35:17;;;;;;;2.00;0.70;;;19.70;47.00;;;;;;4957329;29;20054;-61
2023/04/06 04:37:43;;;;;;;1.50;1.00;;;19.70;46.90;;;;;;4957930;29;20122;-61
2023/04/06 04:40:09;;;;;;;1.65;0.90;;;19.70;46.90;;;;;;4957207;29;20478;-61
2023/04/06 04:42:34;;;;;;;2.15;0.77;;;19.70;46.90;;;;;;4957997;29;20483;-61
2023/04/06 04:45:00;;;;;;;1.80;0.80;;;19.70;46.80;;;;;;4957733;29;20051;-61
2023/04/06 04:47:25;;;;;;;1.58;0.63;;;19.70;46.90;;;;;;4957109;29;20047;-61
2023/04/06 04:49:51;;;;;;;1.48;0.70;;;19.70;46.90;;;;;;4957578;29;20063;-61
2023/04/06 04:52:17;;;;;;;1.50;0.80;;;19.80;46.90;;;;;;4957599;29;20070;-61
2023/04/06 04:54:42;;;;;;;1.30;0.60;;;19.70;47.50;;;;;;4957264;29;20054;-61
2023/04/06 04:57:08;;;;;;;1.30;0.65;;;19.70;46.80;;;;;;4957589;29;20047;-61
2023/04/06 04:59:34;;;;;;;2.00;0.63;;;19.70;46.80;;;;;;4940266;29;20182;-61
2023/04/06 05:02:00;;;;;;;1.08;0.68;;;19.80;46.90;;;;;;4956578;29;20517;-61
2023/04/06 05:04:26;;;;;;;1.48;0.73;;;19.70;46.80;;;;;;4957687;29;20047;-61
2023/04/06 05:07:10;;;;;;;1.40;0.80;;;19.70;46.80;;;;;;4957630;29;20062;-61
2023/04/06 05:09:36;;;;;;;1.25;0.65;;;19.80;46.90;;;;;;4957057;29;20090;-61
2023/04/06 05:12:01;;;;;;;0.93;0.60;;;19.80;46.80;;;;;;4957272;29;20035;-61
2023/04/06 05:14:27;;;;;;;1.58;0.70;;;19.80;46.80;;;;;;4957243;29;20395;-61
2023/04/06 05:16:53;;;;;;;1.33;0.75;;;19.90;46.90;;;;;;4939694;29;20198;-62
2023/04/06 05:19:19;;;;;;;1.27;0.60;;;19.80;46.80;;;;;;4939823;29;20110;-62
2023/04/06 05:21:44;;;;;;;1.05;0.65;;;19.80;46.80;;;;;;4939948;29;20036;-61
2023/04/06 05:24:10;;;;;;;1.45;0.52;;;19.80;46.80;;;;;;4956115;29;20376;-62
2023/04/06 05:26:36;;;;;;;1.52;0.70;;;19.90;46.90;;;;;;4957267;29;20043;-61
2023/04/06 05:29:01;;;;;;;1.33;0.70;;;19.90;46.80;;;;;;4956830;29;20047;-62
2023/04/06 05:31:27;;;;;;;1.70;0.80;;;19.90;46.80;;;;;;4923578;29;20043;-62
2023/04/06 05:33:52;;;;;;;1.88;0.70;;;19.90;47.50;;;;;;4956890;29;20090;-61
2023/04/06 05:36:18;;;;;;;1.55;0.68;;;19.90;46.80;;;;;;4923766;29;20051;-62
2023/04/06 05:38:43;;;;;;;1.17;0.70;;;19.90;46.80;;;;;;4956488;29;20039;-61
2023/04/06 05:41:09;;;;;;;1.30;0.80;;;19.90;46.80;;;;;;4939487;29;20047;-62
2023/04/06 05:43:35;;;;;;;1.90;0.73;;;19.90;46.70;;;;;;4955038;28;20138;-61
2023/04/06 05:46:00;;;;;;;1.65;0.75;;;19.90;46.70;;;;;;4939666;29;20061;-61
2023/04/06 05:48:26;;;;;;;1.42;0.65;;;20.00;46.80;;;;;;4956611;29;20059;-62
2023/04/06 05:50:51;;;;;;;1.60;0.80;;;20.00;46.70;;;;;;4938585;29;20411;-62
2023/04/06 05:53:17;;;;;;;1.45;0.70;;;20.00;46.80;;;;;;4956396;29;20086;-62
2023/04/06 05:55:42;;;;;;;1.65;0.70;;;20.00;46.70;;;;;;4939523;29;20114;-62
2023/04/06 05:58:08;;;;;;;1.67;0.80;;;20.00;46.70;;;;;;4955693;29;20198;-62
2023/04/06 06:00:34;;;;;;;1.15;0.60;;;20.00;46.80;;;;;;4939457;29;20051;-61
2023/04/06 06:03:00;;;;;;;2.13;0.80;;;20.00;46.70;;;;;;4955968;29;20047;-61
2023/04/06 06:05:25;;;;;;;1.55;0.80;;;20.00;46.70;;;;;;4955822;29;20430;-62
2023/04/06 06:07:51;;;;;;;1.77;0.80;;;20.00;46.70;;;;;;4956730;29;20053;-61
2023/04/06 06:10:17;;;;;;;1.40;0.85;;;20.00;46.70;;;;;;4956242;29;20126;-61
2023/04/06 06:12:42;;;;;;;1.42;0.52;;;20.00;46.70;;;;;;4955951;29;20047;-61
2023/04/06 06:15:08;;;;;;;1.17;0.63;;;20.00;46.80;;;;;;4956029;29;20051;-61
2023/04/06 06:17:34;;;;;;;1.58;0.60;;;20.00;46.70;;;;;;4956263;29;20039;-62
2023/04/06 06:19:59;;;;;;;1.67;0.70;;;20.00;46.70;;;;;;4938059;29;20051;-61
2023/04/06 06:22:25;;;;;;;1.25;0.70;;;20.10;46.70;;;;;;4938962;29;20137;-62
2023/04/06 06:24:50;;;;;;;2.65;0.77;;;20.10;46.70;;;;;;4956155;29;20046;-61
2023/04/06 06:27:16;;;;;;;1.90;0.70;;;20.10;46.70;;;;;;4955405;29;20046;-61
2023/04/06 06:29:41;;;;;;;1.00;0.75;;;20.10;46.70;;;;;;4956282;29;20043;-61
2023/04/06 06:32:08;;;;;;;0.90;0.60;;;20.10;46.70;;;;;;4955194;29;20059;-61
2023/04/06 06:34:35;;;;;;;3.00;0.90;;;20.10;46.70;;;;;;4955155;29;20055;-61
2023/04/06 06:37:01;;;;;;;1.30;0.70;;;20.10;46.70;;;;;;4938634;29;20095;-62
2023/04/06 06:39:27;;;;;;;1.42;0.90;;;20.10;46.70;;;;;;4938519;29;20047;-62
2023/04/06 06:41:54;;;;;;;1.10;0.80;;;20.10;46.70;;;;;;4955469;29;20166;-62
2023/04/06 06:44:21;;;;;;;1.88;0.70;;;20.10;47.40;;;;;;4955730;29;20518;-62
2023/04/06 06:46:47;;;;;;;1.10;0.70;;;20.10;46.70;;;;;;4954751;29;20047;-62
2023/04/06 06:49:14;;;;;;;1.83;0.60;;;20.10;46.70;;;;;;4955632;29;20123;-62
2023/04/06 06:51:39;;;;;;;1.60;0.70;;;20.10;46.70;;;;;;4955435;29;20060;-61
2023/04/06 06:54:05;;;;;;;2.45;0.90;;;20.20;46.70;;;;;;4954784;29;20051;-62
2023/04/06 06:56:31;;;;;;;4.00;0.80;;;20.20;46.60;;;;;;4955484;28;20043;-61
2023/04/06 06:58:56;;;;;;;3.33;0.90;;;20.20;46.50;;;;;;4937697;29;20079;-61
2023/04/06 07:01:22;;;;;;;3.72;1.02;;;20.20;46.40;;;;;;4954308;29;20122;-61
2023/04/06 07:03:47;;;;;;;3.33;0.88;;;20.20;46.40;;;;;;4938289;29;20050;-61
2023/04/06 07:06:13;;;;;;;2.15;0.85;;;20.30;46.50;;;;;;4937942;29;20050;-61
2023/04/06 07:08:38;;;;;;;2.50;0.80;;;20.20;46.50;;;;;;4954680;29;20036;-61
2023/04/06 07:11:04;;;;;;;5.20;1.05;;;20.30;46.60;;;;;;4955224;29;20546;-61
2023/04/06 07:13:30;;;;;;;2.58;0.98;;;20.30;46.70;;;;;;4938291;29;20113;-61
2023/04/06 07:15:55;;;;;;;4.00;0.80;;;20.30;46.80;;;;;;4954199;29;20051;-61
2023/04/06 07:18:21;;;;;;;2.13;0.88;;;20.30;46.80;;;;;;4938280;29;20083;-61
2023/04/06 07:20:47;;;;;;;5.65;1.05;;;20.30;46.90;;;;;;4937164;29;20116;-61
2023/04/06 07:23:12;;;;;;;3.78;1.00;;;20.30;47.00;;;;;;4953787;29;20039;-61
2023/04/06 07:25:38;;;;;;;4.85;1.05;;;20.30;47.20;;;;;;4954648;29;20122;-61
2023/04/06 07:28:03;;;;;;;2.15;0.77;;;20.30;47.30;;;;;;4954436;29;20094;-61
2023/04/06 07:30:29;;;;;;;2.63;1.00;;;20.40;47.50;;;;;;4954082;29;20050;-61
2023/04/06 07:32:55;;;;;;;3.45;0.90;;;20.40;47.60;;;;;;4954871;29;20078;-60
2023/04/06 07:35:22;;;;;;;3.03;0.88;;;20.40;47.60;;;;;;4954657;29;20051;-61
2023/04/06 07:37:47;;;;;;;3.13;1.00;;;20.40;47.70;;;;;;4954439;29;20045;-61
2023/04/06 07:40:13;;;;;;;2.55;0.85;;;20.40;47.80;;;;;;4954768;29;20043;-60
2023/04/06 07:42:39;;;;;;;1.80;0.80;;;20.40;47.80;;;;;;4954799;29;20075;-60
2023/04/06 07:45:05;;;;;;;2.60;1.00;;;20.40;47.90;;;;;;4936594;29;20043;-60
2023/04/06 07:47:31;;;;;;;2.17;1.10;;;20.50;47.90;;;;;;4954991;29;20039;-60
2023/04/06 07:49:56;;;;;;;2.28;0.93;;;20.50;47.90;;;;;;4953986;29;20400;-60
2023/04/06 07:52:22;;;;;;;2.58;1.35;;;20.50;47.90;;;;;;4953836;29;20402;-61
2023/04/06 07:54:49;;;;;;;2.88;1.30;;;20.50;47.80;;;;;;4954755;29;20043;-61
2023/04/06 07:57:14;;;;;;;1.88;0.95;;;20.50;47.70;;;;;;4936533;29;20051;-61
2023/04/06 07:59:40;;;;;;;2.40;1.10;;;20.50;47.60;;;;;;4954366;29;20055;-61
2023/04/06 08:02:06;;;;;;;3.25;1.17;;;20.50;47.70;;;;;;4954240;29;20557;-61
2023/04/06 08:04:31;;;;;;;2.47;1.10;;;20.50;47.70;;;;;;4953747;29;20054;-61
2023/04/06 08:06:57;;;;;;;4.28;1.10;;;20.50;47.70;;;;;;4939924;29;20118;-61
2023/04/06 08:09:22;;;;;;;1.85;1.08;;;20.60;47.90;;;;;;4956828;29;20066;-60
2023/04/06 08:11:48;;;;;;;4.10;1.30;;;20.60;47.90;;;;;;4945348;29;20047;-61
2023/04/06 08:14:15;;;;;;;2.35;1.20;;;20.60;48.00;;;;;;4938593;29;20036;-61
2023/04/06 08:16:41;;;;;;;2.15;1.10;;;20.60;48.00;;;;;;4920803;29;20052;-61
2023/04/06 08:19:09;;;;;;;3.42;1.15;;;20.60;48.00;;;;;;4937851;29;20095;-61
2023/04/06 08:21:35;;;;;;;3.78;1.00;;;20.60;48.00;;;;;;4939121;29;20047;-61
2023/04/06 08:24:01;;;;;;;2.72;0.93;;;20.60;48.80;;;;;;4938525;29;20058;-61
2023/04/06 08:26:26;;;;;;;3.78;1.02;;;20.60;48.00;;;;;;4940316;29;20458;-60
2023/04/06 08:28:52;;;;;;;2.58;1.20;;;20.60;48.00;;;;;;4939713;29;20047;-59
2023/04/06 08:31:18;;;;;;;2.35;1.20;;;20.70;48.00;;;;;;4957726;29;20118;-59
2023/04/06 08:33:43;;;;;;;4.18;1.00;;;20.70;48.00;;;;;;4957300;29;20487;-61
2023/04/06 08:36:10;;;;;;;2.30;1.08;;;20.70;48.00;;;;;;4957633;29;20070;-61
2023/04/06 08:38:36;;;;;;;4.25;1.40;;;20.70;47.90;;;;;;4940522;29;20079;-61
2023/04/06 08:41:07;;;;;;;3.95;1.58;;;20.70;47.80;;;;;;4956607;29;20051;-61
2023/04/06 08:43:33;;;;;;;3.30;1.40;;;20.70;47.90;;;;;;4924527;29;20126;-61
2023/04/06 08:45:59;;;;;;;3.55;0.93;;;20.70;48.00;;;;;;4921214;29;20049;-61
2023/04/06 08:48:24;;;;;;;2.05;1.17;;;20.70;48.10;;;;;;4905304;29;20052;-61
2023/04/06 08:50:50;;;;;;;4.70;1.27;;;20.70;48.10;;;;;;4905391;29;20051;-61
2023/04/06 08:53:15;;;;;;;3.47;1.10;;;20.70;48.20;;;;;;4937773;29;20125;-61
2023/04/06 08:55:42;;;;;;;3.53;1.20;;;20.70;48.20;;;;;;4918354;29;20095;-61
2023/04/06 08:58:08;;;;;;;2.63;1.35;;;20.80;48.30;;;;;;4906883;29;20058;-61
2023/04/06 09:00:37;;;;;;;4.07;1.23;;;20.70;48.30;;;;;;4917997;29;20138;-61
2023/04/06 09:03:03;;;;;;;3.22;1.60;;;20.80;48.30;;;;;;4919252;29;20048;-61
2023/04/06 09:05:28;;;;;;;4.70;1.20;;;20.80;48.30;;;;;;4919351;29;20058;-61
2023/04/06 09:07:54;;;;;;;3.33;1.13;;;20.80;48.30;;;;;;4930626;29;20491;-61
2023/04/06 09:10:20;;;;;;;2.45;1.30;;;20.80;48.30;;;;;;4938476;29;20075;-61
2023/04/06 09:12:46;;;;;;;4.20;1.35;;;20.80;48.30;;;;;;4920601;29;20056;-61
2023/04/06 09:15:19;;;;;;;3.03;1.20;;;20.80;48.30;;;;;;4947878;29;20046;-61
2023/04/06 09:17:46;;;;;;;2.60;1.30;;;20.80;48.40;;;;;;4956376;28;20515;-61
2023/04/06 09:20:11;;;;;;;3.25;1.23;;;20.80;48.30;;;;;;4939646;29;20040;-60
2023/04/06 09:22:38;;;;;;;3.45;1.30;;;20.80;48.30;;;;;;4937249;29;20054;-61
2023/04/06 09:25:04;;;;;;;2.90;1.17;;;20.80;48.30;;;;;;4937420;29;20052;-61
2023/04/06 09:27:30;;;;;;;4.53;1.60;;;20.80;48.30;;;;;;4937457;29;20067;-61
2023/04/06 09:30:24;;;;;;;3.40;1.30;;;20.80;48.20;;;;;;4936454;29;20062;-61
2023/04/06 09:32:51;;;;;;;2.70;1.20;;;20.80;48.10;;;;;;4918277;29;20062;-61
2023/04/06 09:35:17;;;;;;;4.55;1.50;;;20.80;48.10;;;;;;4920238;29;20055;-61
2023/04/06 09:37:43;;;;;;;3.75;1.35;;;20.80;48.10;;;;;;4935443;29;20054;-60
2023/04/06 09:40:09;;;;;;;2.65;1.30;;;20.80;48.20;;;;;;4945514;29;20510;-61
2023/04/06 09:42:35;;;;;;;5.22;1.50;;;20.80;48.20;;;;;;4953150;29;20654;-61
2023/04/06 09:45:02;;;;;;;3.13;1.20;;;20.80;48.10;;;;;;4945436;29;20047;-61
2023/04/06 09:47:27;;;;;;;2.20;1.20;;;20.90;48.10;;;;;;4938327;29;20051;-61
2023/04/06 09:49:57;;;;;;;5.38;1.50;;;20.90;48.10;;;;;;4918862;29;20066;-62
2023/04/06 09:52:24;;;;;;;4.68;1.50;;;20.90;48.10;;;;;;4926830;29;20047;-59
2023/04/06 09:54:50;;;;;;;4.10;1.58;;;20.90;48.10;;;;;;4921017;29;20043;-61
2023/04/06 09:57:25;;;;;;;10.85;2.65;;;20.80;48.30;;;;;;4948916;29;20101;-62
2023/04/06 09:59:54;;;;;;;10.35;3.05;;;20.80;48.60;;;;;;4953009;29;20126;-62
2023/04/06 10:02:26;;;;;;;6.85;2.42;;;20.80;48.70;;;;;;4955290;29;20126;-61
2023/04/06 10:05:02;;;;;;;8.85;2.60;;;20.80;48.70;;;;;;4952926;29;20047;-61
2023/04/06 10:07:27;;;;;;;7.72;3.05;;;20.80;48.70;;;;;;4920180;29;20048;-61
2023/04/06 10:09:53;;;;;;;8.95;2.60;;;20.80;48.70;;;;;;4920049;29;20036;-61
2023/04/06 10:12:18;;;;;;;7.80;2.88;;;20.80;48.70;;;;;;4919332;29;20416;-61
2023/04/06 10:14:44;;;;;;;6.20;2.72;;;20.80;48.70;;;;;;4919970;29;20047;-61
2023/04/06 10:17:11;;;;;;;9.02;2.70;;;20.80;48.70;;;;;;4903947;29;20044;-62
2023/04/06 10:19:59;;;;;;;6.85;2.45;;;20.80;48.70;;;;;;4954665;29;20106;-61
2023/04/06 10:22:26;;;;;;;;;;;20.80;49.50;;;;;;4925752;29;20487;-61
2023/04/06 10:24:52;;;;;;;7.05;2.47;;;20.80;48.80;;;;;;4937594;29;19965;-61
2023/04/06 10:27:26;;;;;;;8.35;2.67;;;20.70;48.80;;;;;;4938480;29;20086;-61
2023/04/06 10:29:52;;;;;;;8.98;2.53;;;20.70;48.80;;;;;;4923126;29;20047;-61
2023/04/06 10:32:17;;;;;;;7.35;2.47;;;20.70;49.40;;;;;;4955103;29;20491;-61
2023/04/06 10:34:43;;;;;;;7.28;2.42;;;20.70;48.70;;;;;;4938411;29;20146;-61
2023/04/06 10:37:15;;;;;;;8.27;2.47;;;20.70;48.80;;;;;;4938097;29;20055;-61
2023/04/06 10:39:59;;;;;;;5.47;2.20;;;20.70;48.90;;;;;;4937954;29;20035;-61
2023/04/06 10:42:25;;;;;;;7.95;2.40;;;20.70;49.00;;;;;;4955860;29;20074;-61
2023/04/06 10:44:51;;;;;;;8.18;2.60;;;20.70;49.00;;;;;;4955108;29;20410;-62
2023/04/06 10:47:20;;;;;;;5.72;2.70;;;20.70;49.00;;;;;;4955046;29;20485;-61
2023/04/06 10:49:46;;;;;;;7.32;2.53;;;20.70;49.10;;;;;;4955220;29;20498;-61
2023/04/06 10:52:12;;;;;;;6.35;2.75;;;20.70;49.20;;;;;;4955273;29;20050;-61
2023/04/06 10:54:43;;;;;;;7.68;2.90;;;20.80;49.20;;;;;;4954771;29;20554;-61
2023/04/06 10:57:08;;;;;;;6.50;2.92;;;20.80;49.10;;;;;;4937832;29;20039;-61
2023/04/06 10:59:34;;;;;;;6.05;2.60;;;20.80;49.10;;;;;;4935034;29;20066;-61
2023/04/06 11:01:59;;;;;;;7.45;2.90;;;20.70;49.00;;;;;;4954356;29;20110;-61
2023/04/06 11:04:25;;;;;;;5.95;2.70;;;20.70;49.00;;;;;;4935811;29;20503;-62
2023/04/06 11:06:50;;;;;;;8.95;3.08;;;20.70;48.90;;;;;;4954542;29;20534;-62
2023/04/06 11:09:29;;;;;;;7.72;3.13;;;20.70;48.90;;;;;;4952736;29;20430;-62
2023/04/06 11:11:55;;;;;;;5.93;2.60;;;20.80;49.00;;;;;;4952225;29;20036;-62
2023/04/06 11:14:21;;;;;;;6.72;2.47;;;20.70;48.90;;;;;;4943405;29;20052;-62
2023/04/06 11:16:50;;;;;;;9.35;2.95;;;20.70;48.90;;;;;;4935918;29;20050;-62
2023/04/06 11:19:16;;;;;;;6.03;2.72;;;20.80;48.90;;;;;;4935668;29;20050;-63
2023/04/06 11:21:43;;;;;;;10.25;2.97;;;20.70;48.80;;;;;;4934992;29;20040;-62
2023/04/06 11:24:16;;;;;;;7.30;2.60;;;20.70;48.80;;;;;;4935374;29;20402;-62
2023/04/06 11:26:52;;;;;;;8.05;2.38;;;20.70;48.80;;;;;;4935405;29;20458;-62
2023/04/06 11:29:19;;;;;;;8.95;2.92;;;20.70;48.80;;;;;;4918008;29;20063;-62
2023/04/06 11:31:46;;;;;;;5.00;2.58;;;20.70;48.80;;;;;;4935569;29;20130;-63
2023/04/06 11:34:22;;;;;;;7.85;2.97;;;20.70;48.80;;;;;;4934694;29;20491;-62
2023/04/06 11:36:49;;;;;;;7.38;2.63;;;20.70;48.70;;;;;;4918427;29;20455;-62
2023/04/06 11:39:19;;;;;;;6.43;2.53;;;20.70;48.70;;;;;;4935550;29;20111;-62
2023/04/06 11:41:51;;;;;;;7.70;2.80;;;20.70;48.70;;;;;;4940813;29;20074;-62
2023/04/06 11:44:29;;;;;;;5.10;2.40;;;20.70;48.70;;;;;;4936143;29;20051;-62
2023/04/06 11:46:56;;;;;;;7.80;2.45;;;20.70;48.70;;;;;;4953020;29;20054;-62
2023/04/06 11:49:26;;;;;;;6.03;2.08;;;20.70;48.70;;;;;;4920280;29;20043;-62
2023/04/06 11:51:51;;;;;;;6.53;2.20;;;20.70;48.70;;;;;;4953667;29;20525;-62
2023/04/06 11:54:17;;;;;;;4.28;2.08;;;20.60;48.60;;;;;;4953802;29;20035;-62
2023/04/06 11:56:46;;;;;;;6.28;2.55;;;20.70;48.60;;;;;;4953813;29;20063;-62
2023/04/06 11:59:11;;;;;;;4.07;2.20;;;20.70;48.50;;;;;;4933790;29;20501;-62
2023/04/06 12:01:45;;;;;;;5.00;2.25;;;20.70;48.60;;;;;;4953780;29;20046;-62
2023/04/06 12:04:10;;;;;;;6.20;2.22;;;20.70;48.60;;;;;;4953805;29;20043;-63
2023/04/06 12:06:36;;;;;;;4.65;2.30;;;20.70;48.60;;;;;;4931067;29;20247;-62
2023/04/06 12:09:01;;;;;;;6.80;2.72;;;20.60;48.60;;;;;;4934738;29;20052;-63
2023/04/06 12:11:27;;;;;;;19.40;6.03;;;20.70;49.20;;;;;;4934370;29;20042;-63
2023/04/06 12:13:53;;;;;;;16.20;6.13;;;20.70;49.80;;;;;;4917956;29;20048;-61
2023/04/06 12:16:19;;;;;;;19.75;7.15;;;20.70;50.30;;;;;;4917469;29;20415;-62
2023/04/06 12:18:44;;;;;;;17.02;6.03;;;20.70;50.90;;;;;;4934330;29;20103;-62
2023/04/06 12:21:10;;;;;;;15.50;5.20;;;20.70;50.90;;;;;;4934903;29;20040;-63
2023/04/06 12:23:36;;;;;;;11.48;4.15;;;20.70;50.90;;;;;;4934396;29;20519;-61
2023/04/06 12:26:02;;;;;;;12.05;3.78;;;20.80;50.90;;;;;;4934587;29;20067;-63
2023/04/06 12:28:28;;;;;;;32.08;14.25;;;20.80;50.70;;;;;;4918494;29;20055;-61
2023/04/06 12:30:54;;;;;;;36.55;13.82;;;20.80;51.40;;;;;;4946200;29;20050;-62
2023/04/06 12:33:20;;;;;;;28.20;9.88;;;20.80;51.90;;;;;;4934177;29;20044;-62
2023/04/06 12:35:46;;;;;;;18.48;8.00;;;20.80;51.80;;;;;;4918078;29;20134;-62
2023/04/06 12:38:11;;;;;;;22.13;6.85;;;20.80;52.00;;;;;;4934459;29;20504;-64
2023/04/06 12:40:38;;;;;;;21.25;7.00;;;20.80;52.00;;;;;;4933923;29;20052;-62